Time;durP1;ratioP1;P1;durP2;ratioP2;P2;SDS_P1;SDS_P2;PMS_P1;PMS_P2;Temp;Humidity;BMP_temperature;BMP_pressure;BME280_temperature;BME280_humidity;BME280_pressure;Samples;Min_cycle;Max_cycle;Signal;HPM_P1;HPM_P2
2021/07/28 00:00:39;;;;;;;4.60;3.70;;;;;;;26.17;44.25;100296.28;5112793;28;20523;-73
2021/07/28 00:03:04;;;;;;;4.88;3.80;;;;;;;26.16;44.29;100291.84;5129798;27;20027;-73
2021/07/28 00:05:33;;;;;;;3.97;3.58;;;;;;;26.11;44.35;100296.09;5129651;27;20027;-74
2021/07/28 00:08:01;;;;;;;6.65;4.13;;;;;;;26.15;44.52;100283.75;5113270;28;20034;-74
2021/07/28 00:10:27;;;;;;;4.10;3.70;;;;;;;26.09;44.33;100281.50;5112660;28;20042;-72
2021/07/28 00:12:52;;;;;;;7.05;4.70;;;;;;;26.04;44.71;100284.97;5112375;28;20028;-73
2021/07/28 00:15:18;;;;;;;7.57;4.47;;;;;;;26.12;44.47;100282.63;5112569;28;20379;-72
2021/07/28 00:17:48;;;;;;;4.07;3.70;;;;;;;26.04;44.98;100284.97;5112359;28;20027;-73
2021/07/28 00:23:13;;;;;;;9.25;4.32;;;;;;;26.05;45.29;100286.56;5112829;28;20027;-73
2021/07/28 00:23:14;;;;;;;4.18;3.78;;;;;;;26.04;45.83;100284.97;5117390;28;20508;-73
2021/07/28 00:25:45;;;;;;;6.63;4.32;;;;;;;26.05;46.13;100277.22;5117018;28;20424;-73
2021/07/28 00:28:14;;;;;;;4.57;3.90;;;;;;;26.06;46.23;100276.75;5116719;28;20051;-73
2021/07/28 00:30:43;;;;;;;7.20;4.07;;;;;;;26.07;46.30;100266.94;5116250;28;20033;-73
2021/07/28 00:33:09;;;;;;;3.90;3.60;;;;;;;26.07;46.27;100269.78;5116834;28;20023;-74
2021/07/28 00:35:34;;;;;;;5.05;3.60;;;;;;;26.07;46.44;100277.53;5116218;28;20059;-74
2021/07/28 00:38:05;;;;;;;4.70;3.90;;;;;;;26.13;46.19;100275.66;5115879;28;20035;-74
2021/07/28 00:40:31;;;;;;;5.38;4.15;;;;;;;26.18;46.33;100271.41;5116183;28;20027;-74
2021/07/28 00:43:14;;;;;;;4.30;3.92;;;;;;;26.17;46.64;100275.53;5116694;28;20031;-75
2021/07/28 00:45:40;;;;;;;4.55;4.07;;;;;;;26.17;46.34;100266.97;5116357;28;20032;-75
2021/07/28 00:48:08;;;;;;;6.68;4.00;;;;;;;26.23;46.14;100267.97;5116003;28;20477;-72
2021/07/28 00:50:35;;;;;;;5.32;4.15;;;;;;;26.21;46.23;100273.34;5133421;27;20035;-73
2021/07/28 00:53:03;;;;;;;5.57;4.63;;;;;;;26.19;46.23;100273.00;5117591;28;20027;-75
2021/07/28 00:55:31;;;;;;;3.97;3.58;;;;;;;26.11;46.40;100266.81;5117008;28;20024;-74
2021/07/28 00:57:59;;;;;;;4.40;3.97;;;;;;;26.12;46.65;100271.22;5117213;28;20369;-73
2021/07/28 01:00:25;;;;;;;5.68;4.20;;;;;;;26.09;46.37;100275.81;5116125;28;20028;-74
2021/07/28 01:02:50;;;;;;;8.27;3.72;;;;;;;26.00;47.31;100281.47;5115763;28;20443;-73
2021/07/28 01:05:18;;;;;;;5.07;4.00;;;;;;;25.99;46.63;100274.16;5115779;28;20119;-74
2021/07/28 01:07:46;;;;;;;4.22;3.75;;;;;;;26.01;46.39;100274.50;5115972;28;20114;-72
2021/07/28 01:10:12;;;;;;;6.22;3.80;;;;;;;25.95;46.48;100270.69;5115978;28;20114;-74
2021/07/28 01:12:43;;;;;;;7.03;4.30;;;;;;;25.99;46.13;100271.31;5116156;28;20434;-72
2021/07/28 01:15:10;;;;;;;4.95;4.47;;;;;;;26.00;46.66;100267.22;5115573;28;20038;-75
2021/07/28 01:17:36;;;;;;;4.70;4.22;;;;;;;25.97;46.20;100265.28;5115255;28;20028;-72
2021/07/28 01:20:07;;;;;;;4.82;3.97;;;;;;;25.79;45.88;100245.25;5115642;28;20024;-71
2021/07/28 01:22:33;;;;;;;4.65;4.25;;;;;;;25.88;46.42;100259.53;5115666;28;20039;-73
2021/07/28 01:25:02;;;;;;;4.75;4.35;;;;;;;25.89;45.11;100266.84;5114223;28;20080;-72
2021/07/28 01:27:30;;;;;;;5.43;4.55;;;;;;;25.85;44.58;100261.28;5114135;28;20023;-74
2021/07/28 01:29:55;;;;;;;7.35;3.97;;;;;;;25.75;44.08;100262.47;5114118;28;20027;-74
2021/07/28 01:32:21;;;;;;;4.00;3.70;;;;;;;25.74;43.92;100265.78;5114249;28;20031;-74
2021/07/28 01:34:49;;;;;;;4.47;3.97;;;;;;;25.72;44.40;100263.38;5114043;28;20022;-74
2021/07/28 01:37:17;;;;;;;4.90;4.07;;;;;;;25.76;44.69;100255.53;5113981;28;20085;-72
2021/07/28 01:39:45;;;;;;;5.18;4.70;;;;;;;25.74;45.06;100260.91;5113977;28;20119;-74
2021/07/28 01:42:10;;;;;;;5.47;4.18;;;;;;;25.77;45.07;100253.47;5115194;28;20421;-73
2021/07/28 01:44:38;;;;;;;4.65;4.15;;;;;;;25.81;44.98;100254.91;5113997;28;20077;-73
2021/07/28 01:47:03;;;;;;;4.63;3.95;;;;;;;25.80;45.05;100252.53;5114139;28;20066;-74
2021/07/28 01:49:29;;;;;;;4.53;4.03;;;;;;;25.83;45.41;100260.13;5113777;28;20482;-73
2021/07/28 01:51:54;;;;;;;4.40;4.03;;;;;;;25.85;45.31;100266.19;5114350;28;20122;-72
2021/07/28 01:54:20;;;;;;;5.40;4.28;;;;;;;25.81;45.73;100263.47;5114224;28;20454;-72
2021/07/28 01:56:48;;;;;;;4.82;4.43;;;;;;;25.87;45.92;100252.25;5113573;28;20397;-73
2021/07/28 01:59:16;;;;;;;4.85;4.10;;;;;;;25.81;44.96;100256.97;5113545;28;20031;-74
2021/07/28 02:01:42;;;;;;;4.70;4.13;;;;;;;26.00;45.32;100255.81;5113503;28;20050;-73
2021/07/28 02:04:07;;;;;;;4.68;3.78;;;;;;;25.83;46.44;100258.13;5113441;28;20023;-73
2021/07/28 02:06:33;;;;;;;6.55;4.05;;;;;;;25.74;45.81;100255.19;5113508;28;20032;-75
2021/07/28 02:09:02;;;;;;;5.13;3.58;;;;;;;25.70;46.33;100259.41;5130336;28;20039;-75
2021/07/28 02:11:27;;;;;;;5.53;4.05;;;;;;;25.70;46.08;100260.19;5113424;28;20038;-72
2021/07/28 02:13:53;;;;;;;5.97;3.75;;;;;;;25.59;46.61;100266.31;5113318;28;20023;-74
2021/07/28 02:16:19;;;;;;;4.28;3.95;;;;;;;25.60;46.75;100265.03;5063718;28;1410998;-73
2021/07/28 02:18:44;;;;;;;5.32;4.47;;;;;;;25.53;45.96;100261.69;5114523;28;20039;-72
2021/07/28 02:21:11;;;;;;;4.55;3.60;;;;;;;25.54;45.37;100261.22;5114773;28;20038;-73
2021/07/28 02:23:38;;;;;;;4.68;4.20;;;;;;;25.50;44.88;100259.75;5114170;28;20029;-74
2021/07/28 02:26:03;;;;;;;4.93;4.20;;;;;;;25.49;45.44;100256.09;5114598;28;20430;-73
2021/07/28 02:28:29;;;;;;;6.75;3.90;;;;;;;25.49;45.82;100261.81;5114059;28;20028;-74
2021/07/28 02:30:54;;;;;;;4.25;3.85;;;;;;;25.58;45.50;100264.72;5113975;28;20028;-73
2021/07/28 02:33:20;;;;;;;5.10;4.60;;;;;;;25.58;45.03;100256.19;5114004;28;20031;-73
2021/07/28 02:35:46;;;;;;;4.80;3.90;;;;;;;25.54;44.93;100260.41;5113980;28;20024;-71
2021/07/28 02:38:11;;;;;;;5.63;5.00;;;;;;;25.51;44.70;100267.81;5114125;28;20032;-73
2021/07/28 02:40:37;;;;;;;6.13;5.63;;;;;;;25.49;45.63;100261.81;5113778;28;20107;-72
2021/07/28 02:43:03;;;;;;;10.13;9.23;;;;;;;25.41;45.37;100265.38;5130617;27;20088;-74
2021/07/28 02:45:31;;;;;;;9.23;7.82;;;;;;;25.38;45.69;100261.41;5130444;27;20035;-74
2021/07/28 02:47:56;;;;;;;7.97;7.22;;;;;;;25.34;45.64;100258.69;5113964;28;20035;-74
2021/07/28 02:50:22;;;;;;;6.00;5.40;;;;;;;25.29;46.43;100252.78;5113754;28;20508;-75
2021/07/28 02:52:47;;;;;;;6.00;5.07;;;;;;;25.30;45.74;100260.88;5113590;28;20027;-74
2021/07/28 02:55:13;;;;;;;5.03;4.53;;;;;;;25.36;46.03;100263.16;5113534;28;20035;-73
2021/07/28 02:57:39;;;;;;;6.97;4.85;;;;;;;25.30;45.62;100262.91;5130626;27;20023;-73
2021/07/28 03:00:08;;;;;;;7.55;4.75;;;;;;;25.25;46.24;100252.16;5113467;28;20023;-72
2021/07/28 03:02:34;;;;;;;5.20;4.70;;;;;;;25.32;45.45;100257.56;5113664;28;20473;-74
2021/07/28 03:05:00;;;;;;;6.75;4.25;;;;;;;25.17;45.60;100253.66;5113604;28;20412;-72
2021/07/28 03:07:25;;;;;;;5.22;4.30;;;;;;;25.04;46.24;100248.78;5113395;28;20032;-73
2021/07/28 03:09:51;;;;;;;5.03;4.53;;;;;;;24.86;46.09;100259.97;5113553;28;20039;-73
2021/07/28 03:12:16;;;;;;;6.03;4.60;;;;;;;24.77;47.03;100259.91;5113184;28;20020;-73
2021/07/28 03:14:42;;;;;;;6.20;4.45;;;;;;;24.73;47.72;100267.75;5113093;28;20023;-72
2021/07/28 03:17:08;;;;;;;5.03;4.45;;;;;;;24.72;47.29;100266.16;5112694;28;20051;-73
2021/07/28 03:19:33;;;;;;;8.57;4.47;;;;;;;24.67;47.31;100263.91;5113097;28;20482;-74
2021/07/28 03:21:59;;;;;;;6.15;4.95;;;;;;;24.65;47.46;100255.00;5130395;27;20032;-73
2021/07/28 03:24:24;;;;;;;5.97;4.85;;;;;;;24.61;47.53;100262.88;5113063;28;20027;-73
2021/07/28 03:26:50;;;;;;;7.60;5.20;;;;;;;24.58;47.50;100258.91;5112803;28;20028;-73
2021/07/28 03:29:16;;;;;;;8.73;6.05;;;;;;;24.55;47.82;100257.78;5112931;28;20054;-74
2021/07/28 03:31:41;;;;;;;6.50;5.80;;;;;;;24.55;49.32;100251.28;5113423;28;20039;-74
2021/07/28 03:34:07;;;;;;;7.85;6.38;;;;;;;24.44;48.06;100256.53;5113074;28;20111;-73
2021/07/28 03:36:33;;;;;;;7.82;5.50;;;;;;;24.44;48.24;100256.53;5112761;28;20047;-73
2021/07/28 03:38:58;;;;;;;5.40;4.82;;;;;;;24.52;47.57;100266.44;5130616;27;20070;-73
2021/07/28 03:41:26;;;;;;;6.38;5.78;;;;;;;24.38;47.39;100253.44;5112424;28;20066;-73
2021/07/28 03:43:52;;;;;;;6.97;5.93;;;;;;;24.27;47.89;100252.97;5112320;28;20096;-74
2021/07/28 03:46:17;;;;;;;7.43;6.05;;;;;;;24.33;47.79;100256.03;5112672;28;20467;-73
2021/07/28 03:48:43;;;;;;;11.30;10.10;;;;;;;24.30;47.73;100252.09;5112718;28;20031;-72
2021/07/28 03:51:09;;;;;;;20.92;14.07;;;;;;;24.14;47.81;100230.25;5112899;28;20042;-74
2021/07/28 03:53:36;;;;;;;14.18;12.52;;;;;;;24.24;47.57;100248.22;5113093;28;20122;-74
2021/07/28 03:56:02;;;;;;;13.73;12.43;;;;;;;24.25;47.62;100261.97;5112686;28;20124;-75
2021/07/28 03:58:28;;;;;;;14.85;13.30;;;;;;;24.28;48.41;100254.56;5112489;28;20462;-72
2021/07/28 04:00:53;;;;;;;16.73;13.32;;;;;;;24.30;48.00;100252.88;5112488;28;20039;-73
2021/07/28 04:03:19;;;;;;;12.32;11.00;;;;;;;24.41;47.07;100258.25;5112868;28;20023;-72
2021/07/28 04:05:45;;;;;;;13.02;11.65;;;;;;;24.34;47.61;100258.44;5112444;28;20039;-74
2021/07/28 04:08:12;;;;;;;10.50;9.43;;;;;;;24.43;47.13;100255.72;5112395;28;20076;-71
2021/07/28 04:10:38;;;;;;;11.13;10.13;;;;;;;24.44;47.68;100254.47;5129424;28;20028;-72
2021/07/28 04:13:04;;;;;;;11.98;6.70;;;;;;;24.54;46.99;100259.00;5112261;28;20030;-73
2021/07/28 04:15:30;;;;;;;15.38;6.10;;;;;;;24.59;46.23;100256.84;5112218;28;20085;-73
2021/07/28 04:17:58;;;;;;;8.40;5.20;;;;;;;24.67;47.02;100264.69;5112727;28;20431;-72
2021/07/28 04:20:27;;;;;;;8.45;4.93;;;;;;;24.68;46.96;100259.81;5112563;28;20043;-74
2021/07/28 04:22:53;;;;;;;5.35;4.63;;;;;;;24.68;47.02;100262.66;5112128;28;20035;-74
2021/07/28 04:25:18;;;;;;;5.68;4.10;;;;;;;24.85;46.82;100261.22;5113784;28;20084;-72
2021/07/28 04:27:44;;;;;;;4.82;4.40;;;;;;;24.80;47.20;100258.97;5112757;28;20042;-73
2021/07/28 04:30:10;;;;;;;6.20;4.40;;;;;;;24.79;46.71;100261.03;5129483;28;20447;-74
2021/07/28 04:32:36;;;;;;;5.38;4.88;;;;;;;24.92;47.38;100263.03;5112002;28;20027;-74
2021/07/28 04:35:04;;;;;;;9.23;5.10;;;;;;;25.08;45.25;100255.13;5112633;28;20081;-74
2021/07/28 04:37:30;;;;;;;5.50;5.00;;;;;;;25.34;45.16;100257.88;5112096;28;20047;-72
2021/07/28 04:40:00;;;;;;;6.03;4.57;;;;;;;25.49;45.04;100258.94;5112352;28;20066;-72
2021/07/28 04:42:26;;;;;;;6.78;4.32;;;;;;;25.71;43.81;100258.94;5129224;28;20020;-72
2021/07/28 04:44:51;;;;;;;5.75;5.13;;;;;;;25.94;43.44;100252.00;5111977;28;20027;-75
2021/07/28 04:47:17;;;;;;;8.50;5.13;;;;;;;26.18;43.44;100254.31;5111971;28;20031;-72
2021/07/28 04:49:45;;;;;;;6.85;5.63;;;;;;;26.46;42.76;100252.38;5112520;28;20036;-74
2021/07/28 04:52:12;;;;;;;5.82;5.32;;;;;;;26.81;42.60;100253.72;5112681;28;20024;-72
2021/07/28 04:54:38;;;;;;;7.20;4.97;;;;;;;27.14;41.54;100253.94;5112890;28;20030;-72
2021/07/28 04:57:04;;;;;;;11.13;5.38;;;;;;;27.45;40.98;100255.84;5129088;28;20027;-73
2021/07/28 04:59:32;;;;;;;7.25;5.18;;;;;;;27.73;40.56;100253.75;5111775;28;20114;-71
2021/07/28 05:01:58;;;;;;;6.90;5.25;;;;;;;28.04;40.16;100259.22;5111864;28;20030;-73
2021/07/28 05:04:24;;;;;;;5.63;5.07;;;;;;;28.38;39.70;100254.34;5113026;28;20031;-73
2021/07/28 05:06:50;;;;;;;6.47;5.93;;;;;;;28.49;40.15;100254.59;5112780;28;20145;-73
2021/07/28 05:09:19;;;;;;;7.07;5.82;;;;;;;28.79;39.50;100255.53;5115910;28;20426;-73
2021/07/28 05:11:45;;;;;;;5.85;5.22;;;;;;;29.13;39.04;100256.25;5116143;28;20032;-72
2021/07/28 05:14:10;;;;;;;5.78;4.97;;;;;;;29.43;38.00;100257.13;5115716;28;20042;-73
2021/07/28 05:16:36;;;;;;;7.30;5.18;;;;;;;29.65;37.26;100260.44;5115031;28;20079;-73
2021/07/28 05:19:02;;;;;;;7.28;5.10;;;;;;;29.93;37.13;100260.91;5115421;28;20024;-72
2021/07/28 05:21:27;;;;;;;6.00;5.03;;;;;;;30.11;36.84;100264.88;5115806;28;20118;-73
2021/07/28 05:23:53;;;;;;;5.60;5.10;;;;;;;30.38;36.57;100266.66;5115155;28;20435;-72
2021/07/28 05:26:18;;;;;;;7.28;4.75;;;;;;;30.73;36.08;100260.91;5115552;28;20045;-74
2021/07/28 05:28:46;;;;;;;6.28;5.68;;;;;;;30.99;35.95;100258.13;5115354;28;20382;-71
2021/07/28 05:31:15;;;;;;;11.20;6.63;;;;;;;31.27;35.40;100258.50;5116314;28;20501;-71
2021/07/28 05:33:41;;;;;;;9.80;6.15;;;;;;;31.26;34.92;100259.78;5115737;28;20051;-74
2021/07/28 05:36:07;;;;;;;8.20;5.80;;;;;;;31.61;34.81;100248.16;5132316;27;20051;-72
2021/07/28 05:38:33;;;;;;;9.43;5.47;;;;;;;31.58;34.48;100259.88;5115339;28;20458;-71
2021/07/28 05:41:02;;;;;;;10.70;6.10;;;;;;;31.70;34.13;100265.25;5115293;28;20063;-73
2021/07/28 05:43:27;;;;;;;7.25;5.30;;;;;;;31.64;33.76;100255.78;5114885;28;20423;-72
2021/07/28 05:45:53;;;;;;;5.68;5.13;;;;;;;32.08;33.72;100266.13;5115385;28;20039;-73
2021/07/28 05:48:18;;;;;;;8.38;5.65;;;;;;;32.24;33.67;100270.44;5115318;28;20031;-72
2021/07/28 05:50:44;;;;;;;7.00;4.85;;;;;;;32.34;32.58;100271.81;5115395;28;20390;-73
2021/07/28 05:53:10;;;;;;;5.63;4.88;;;;;;;32.39;32.85;100259.59;5114835;28;20528;-73
2021/07/28 05:55:35;;;;;;;8.30;4.90;;;;;;;32.77;31.61;100274.75;5115309;28;20058;-74
2021/07/28 05:58:01;;;;;;;8.15;5.13;;;;;;;32.73;31.39;100263.47;5115087;28;20032;-73
2021/07/28 06:00:27;;;;;;;7.47;5.00;;;;;;;33.33;30.50;100272.91;5115506;27;20035;-73
2021/07/28 06:02:52;;;;;;;5.97;5.10;;;;;;;33.73;29.93;100275.94;5114886;27;20034;-72
2021/07/28 06:05:19;;;;;;;8.02;5.32;;;;;;;34.06;29.63;100280.97;5114654;28;20535;-74
2021/07/28 06:07:45;;;;;;;8.13;6.25;;;;;;;34.45;29.11;100283.06;5114588;28;20081;-72
2021/07/28 06:10:11;;;;;;;9.20;6.10;;;;;;;34.87;29.08;100281.91;5114642;28;20035;-75
2021/07/28 06:12:39;;;;;;;6.32;4.78;;;;;;;34.95;28.81;100287.97;5115331;28;20027;-73
2021/07/28 06:15:08;;;;;;;5.18;4.72;;;;;;;35.22;28.43;100287.06;5114375;28;20038;-74
2021/07/28 06:17:34;;;;;;;5.53;4.20;;;;;;;35.31;27.40;100289.63;5115884;28;20038;-73
2021/07/28 06:20:00;;;;;;;5.10;4.50;;;;;;;35.21;28.32;100291.28;5114507;28;20103;-74
2021/07/28 06:22:25;;;;;;;4.72;4.32;;;;;;;35.32;27.72;100282.56;5131667;27;20462;-73
2021/07/28 06:24:51;;;;;;;5.15;4.70;;;;;;;35.17;27.38;100285.00;5131325;27;20530;-73
2021/07/28 06:27:17;;;;;;;6.18;4.60;;;;;;;35.05;27.20;100280.56;5114439;28;20023;-74
2021/07/28 06:29:43;;;;;;;6.53;5.00;;;;;;;34.97;27.35;100279.56;5114734;28;20028;-73
2021/07/28 06:32:08;;;;;;;6.72;4.85;;;;;;;34.60;27.67;100277.78;5114270;28;20511;-74
2021/07/28 06:34:34;;;;;;;5.55;4.70;;;;;;;34.29;27.71;100279.63;5114065;28;20393;-73
2021/07/28 06:37:00;;;;;;;7.32;4.93;;;;;;;34.80;28.08;100289.03;5131099;27;20028;-74
2021/07/28 06:39:26;;;;;;;10.10;4.93;;;;;;;35.10;27.71;100282.66;5113988;28;20031;-74
2021/07/28 06:41:52;;;;;;;6.97;5.30;;;;;;;35.32;28.08;100288.34;5114480;28;20472;-75
2021/07/28 06:44:18;;;;;;;6.03;4.75;;;;;;;35.24;27.89;100281.53;5113728;28;20062;-73
2021/07/28 06:46:44;;;;;;;6.78;6.07;;;;;;;35.12;28.19;100285.81;5113925;28;20034;-72
2021/07/28 06:49:09;;;;;;;7.72;5.22;;;;;;;35.20;27.91;100281.03;5130668;27;20078;-72
2021/07/28 06:51:37;;;;;;;8.40;5.90;;;;;;;35.17;26.92;100282.88;5130695;27;20399;-74
2021/07/28 06:54:03;;;;;;;10.65;6.30;;;;;;;34.94;27.49;100284.28;5114869;28;20115;-73
2021/07/28 06:56:29;;;;;;;13.10;6.68;;;;;;;34.64;28.61;100286.97;5114433;28;20104;-73
2021/07/28 06:58:55;;;;;;;9.77;5.90;;;;;;;34.91;27.88;100288.22;5096445;28;20046;-74
2021/07/28 07:01:21;;;;;;;8.27;5.40;;;;;;;35.79;26.94;100278.88;5113214;28;20019;-75
2021/07/28 07:03:46;;;;;;;6.55;5.13;;;;;;;35.77;26.58;100282.31;5129816;27;20042;-74
2021/07/28 07:06:12;;;;;;;7.47;5.47;;;;;;;35.49;27.08;100287.50;5114051;28;20110;-73
2021/07/28 07:08:38;;;;;;;5.75;4.70;;;;;;;35.74;26.48;100280.47;5113613;28;20035;-72
2021/07/28 07:11:03;;;;;;;9.05;5.65;;;;;;;35.77;25.92;100285.19;5113458;28;20077;-74
2021/07/28 07:13:33;;;;;;;8.52;5.97;;;;;;;35.92;25.89;100284.84;5113517;28;20118;-73
2021/07/28 07:16:02;;;;;;;7.68;5.80;;;;;;;36.04;24.46;100273.97;5114480;28;20044;-74
2021/07/28 07:18:31;;;;;;;8.77;5.95;;;;;;;36.29;24.18;100280.63;5114841;28;20470;-74
2021/07/28 07:20:57;;;;;;;6.10;5.47;;;;;;;36.57;23.41;100272.44;5113306;28;20362;-74
2021/07/28 07:23:22;;;;;;;9.43;5.60;;;;;;;35.98;24.19;100281.94;5130359;27;20027;-74
2021/07/28 07:25:48;;;;;;;9.32;6.38;;;;;;;36.27;24.74;100272.44;5130373;27;20043;-72
2021/07/28 07:28:14;;;;;;;18.13;12.07;;;;;;;36.54;23.40;100272.75;5112958;28;20083;-73
2021/07/28 07:30:39;;;;;;;17.08;10.68;;;;;;;36.17;24.69;100277.03;5112753;28;20024;-72
2021/07/28 07:33:50;;;;;;;15.88;10.00;;;;;;;36.58;23.95;100256.63;5113126;28;20059;-73
2021/07/28 07:35:50;;;;;;;24.23;17.92;;;;;;;36.62;24.25;100274.50;5113492;27;20036;-74
2021/07/28 07:38:16;;;;;;;24.80;17.38;;;;;;;37.37;23.73;100262.31;5113289;28;20119;-74
2021/07/28 07:40:43;;;;;;;25.98;18.70;;;;;;;37.53;23.16;100245.19;5112973;28;20035;-74
2021/07/28 07:43:08;;;;;;;22.83;15.27;;;;;;;37.43;23.08;100270.91;5113958;28;20061;-72
2021/07/28 07:45:36;;;;;;;22.50;13.55;;;;;;;37.07;23.70;100273.22;5114503;28;20530;-74
2021/07/28 07:48:04;;;;;;;20.08;13.60;;;;;;;37.10;23.58;100272.13;5112866;28;20473;-74
2021/07/28 07:50:35;;;;;;;25.08;14.27;;;;;;;37.75;23.43;100271.75;5112735;28;20036;-75
2021/07/28 07:53:01;;;;;;;15.65;12.20;;;;;;;37.72;22.80;100269.19;5112599;28;20048;-74
2021/07/28 07:55:26;;;;;;;18.92;12.35;;;;;;;37.95;22.25;100276.22;5112483;28;20037;-74
2021/07/28 07:57:52;;;;;;;13.60;11.30;;;;;;;37.68;22.92;100268.72;5112569;28;20028;-73
2021/07/28 08:00:18;;;;;;;15.52;10.65;;;;;;;38.36;22.66;100269.22;5112492;28;20028;-73
2021/07/28 08:02:44;;;;;;;14.55;11.18;;;;;;;38.29;21.58;100269.09;5112773;28;20063;-73
2021/07/28 08:05:10;;;;;;;17.55;11.30;;;;;;;37.76;21.89;100267.50;5111923;28;20028;-74
2021/07/28 08:07:35;;;;;;;19.90;10.18;;;;;;;38.78;21.42;100276.13;5112108;28;20434;-72
2021/07/28 08:10:01;;;;;;;15.68;11.63;;;;;;;38.90;21.05;100281.69;5112542;28;20069;-73
2021/07/28 08:12:27;;;;;;;14.88;11.93;;;;;;;37.98;21.63;100280.13;5113984;27;20066;-74
2021/07/28 08:14:53;;;;;;;12.57;10.27;;;;;;;38.80;20.87;100277.69;5112551;28;20023;-76
2021/07/28 08:17:18;;;;;;;15.13;10.68;;;;;;;38.57;21.22;100278.09;5111701;28;20147;-74
2021/07/28 08:19:44;;;;;;;13.55;10.80;;;;;;;38.15;21.18;100276.97;5112105;28;20456;-73
2021/07/28 08:22:10;;;;;;;10.80;9.25;;;;;;;38.67;21.67;100287.13;5112262;28;20362;-75
2021/07/28 08:24:36;;;;;;;11.95;8.48;;;;;;;38.23;21.30;100274.97;5113771;28;20027;-78
2021/07/28 08:27:01;;;;;;;16.63;9.02;;;;;;;37.87;21.69;100281.09;5112529;28;20538;-75
2021/07/28 08:29:31;;;;;;;10.60;8.35;;;;;;;38.01;21.47;100276.91;5112108;28;20094;-77
2021/07/28 08:31:56;;;;;;;8.90;7.32;;;;;;;38.07;20.20;100281.84;5129172;28;20095;-73
2021/07/28 08:34:22;;;;;;;10.38;7.70;;;;;;;38.96;19.68;100280.25;5112007;28;20027;-74
2021/07/28 08:36:47;;;;;;;9.38;8.32;;;;;;;38.72;19.52;100281.19;5112629;28;20382;-73
2021/07/28 08:39:18;;;;;;;11.50;8.20;;;;;;;38.46;19.87;100273.28;5129040;28;20375;-75
2021/07/28 08:41:48;;;;;;;8.77;7.88;;;;;;;38.61;18.49;100277.75;5113607;28;20032;-74
2021/07/28 08:44:23;;;;;;;9.25;7.50;;;;;;;38.06;19.75;100275.25;5115846;28;20058;-73
2021/07/28 08:46:53;;;;;;;8.55;7.25;;;;;;;38.62;17.57;100274.28;5115929;28;20031;-73
2021/07/28 08:49:20;;;;;;;7.72;6.93;;;;;;;39.56;17.72;100273.66;5115801;28;20050;-74
2021/07/28 08:51:47;;;;;;;12.02;6.82;;;;;;;39.35;17.76;100272.81;5132908;27;20161;-75
2021/07/28 08:54:12;;;;;;;10.05;7.82;;;;;;;39.50;17.24;100280.97;5115438;28;20067;-73
2021/07/28 08:56:41;;;;;;;11.63;7.97;;;;;;;39.75;17.40;100279.34;5115569;28;20074;-73
2021/07/28 08:59:24;;;;;;;11.57;7.97;;;;;;;39.96;17.47;100284.41;5132779;27;20043;-74
2021/07/28 09:01:49;;;;;;;8.07;7.10;;;;;;;40.27;17.25;100276.75;5117382;28;20032;-75
2021/07/28 09:04:15;;;;;;;8.15;5.75;;;;;;;39.98;16.58;100270.81;5115479;28;20359;-74
2021/07/28 09:06:41;;;;;;;6.50;5.95;;;;;;;39.26;18.10;100273.31;5115838;28;20032;-75
2021/07/28 09:09:06;;;;;;;5.88;5.30;;;;;;;39.45;17.32;100279.75;5115830;28;20031;-76
2021/07/28 09:11:32;;;;;;;6.47;5.30;;;;;;;39.64;17.31;100273.78;5115752;28;20031;-76
2021/07/28 09:14:16;;;;;;;7.63;5.10;;;;;;;40.17;16.46;100272.78;5115422;28;20023;-75
2021/07/28 09:16:42;;;;;;;5.20;4.80;;;;;;;40.46;15.77;100268.53;5114795;28;20055;-75
2021/07/28 09:19:08;;;;;;;8.48;4.75;;;;;;;40.28;15.39;100263.75;5115105;28;20035;-75
2021/07/28 09:21:33;;;;;;;7.70;4.95;;;;;;;40.96;14.76;100259.78;5114738;28;20138;-74
2021/07/28 09:26:40;;;;;;;6.80;5.20;;;;;;;39.88;14.45;100237.72;5116276;28;20035;-75
2021/07/28 09:29:12;;;;;;;6.53;5.47;;;;;;;39.21;16.12;100256.75;5116061;28;20470;-73
2021/07/28 09:31:45;;;;;;;8.85;5.13;;;;;;;39.86;15.58;100257.91;5115249;28;20028;-75
2021/07/28 09:34:37;;;;;;;5.47;4.97;;;;;;;40.50;16.26;100242.75;5115474;28;20024;-76
2021/07/28 09:37:10;;;;;;;7.18;5.18;;;;;;;41.13;15.17;100251.31;5114467;28;20050;-76
2021/07/28 09:39:38;;;;;;;5.88;4.57;;;;;;;40.62;14.88;100260.72;5115243;28;20023;-75
2021/07/28 09:42:11;;;;;;;5.75;4.15;;;;;;;40.21;16.57;100246.97;5115653;28;20031;-78
2021/07/28 09:44:38;;;;;;;5.45;4.80;;;;;;;40.23;15.94;100253.03;5114531;28;20023;-76
2021/07/28 09:47:14;;;;;;;8.45;5.18;;;;;;;40.50;15.27;100247.81;5114706;28;20044;-76
2021/07/28 09:49:45;;;;;;;6.38;4.90;;;;;;;40.61;15.71;100253.34;5115154;28;20024;-74
2021/07/28 09:52:21;;;;;;;6.30;5.05;;;;;;;40.97;15.65;100243.84;5131673;27;20031;-73
2021/07/28 09:54:54;;;;;;;8.40;4.30;;;;;;;40.60;15.54;100262.66;5114813;28;20051;-75
2021/07/28 09:57:25;;;;;;;7.40;4.68;;;;;;;40.53;15.71;100255.41;5131981;27;20483;-76
2021/07/28 10:00:05;;;;;;;5.88;5.28;;;;;;;40.33;16.11;100251.94;5131730;27;20035;-75
2021/07/28 10:02:35;;;;;;;7.38;5.10;;;;;;;39.79;17.17;100255.66;5131686;27;20031;-75
2021/07/28 10:05:06;;;;;;;9.52;4.90;;;;;;;40.23;16.90;100245.06;5114306;28;20028;-74
2021/07/28 10:07:36;;;;;;;7.28;5.32;;;;;;;40.42;17.88;100250.63;5131970;27;20382;-74
2021/07/28 10:10:09;;;;;;;9.98;5.28;;;;;;;40.54;18.24;100249.03;5114168;28;20039;-74
2021/07/28 10:12:37;;;;;;;7.00;6.07;;;;;;;40.99;18.54;100241.13;5114236;28;20050;-76
2021/07/28 10:15:05;;;;;;;12.00;5.43;;;;;;;40.92;18.08;100236.81;5114083;28;20024;-77
2021/07/28 10:17:32;;;;;;;6.35;4.93;;;;;;;41.36;18.13;100245.59;5114226;28;20035;-75
2021/07/28 10:19:59;;;;;;;7.85;4.90;;;;;;;40.93;17.46;100250.06;5131172;27;20031;-76
2021/07/28 10:22:24;;;;;;;9.15;5.03;;;;;;;39.60;19.68;100240.50;5114470;28;20076;-76
2021/07/28 10:24:51;;;;;;;8.18;4.80;;;;;;;39.65;19.47;100251.28;5114110;28;20028;-76
2021/07/28 10:27:17;;;;;;;7.03;5.10;;;;;;;39.20;19.87;100249.34;5114345;28;20448;-75
2021/07/28 10:29:44;;;;;;;6.20;4.53;;;;;;;39.12;20.11;100251.38;5114551;28;20051;-76
2021/07/28 10:32:27;;;;;;;6.10;4.50;;;;;;;39.60;19.87;100249.25;5130799;27;20509;-75
2021/07/28 10:34:53;;;;;;;6.15;4.95;;;;;;;39.62;19.21;100252.38;5130747;27;20036;-74
2021/07/28 10:37:29;;;;;;;5.05;4.55;;;;;;;39.33;18.99;100249.34;5131042;27;20092;-77
2021/07/28 10:39:56;;;;;;;4.57;3.97;;;;;;;39.42;19.61;100250.97;5097186;28;20133;-75
2021/07/28 10:42:31;;;;;;;5.40;4.22;;;;;;;39.56;20.11;100253.28;5113774;28;20028;-75
2021/07/28 10:45:09;;;;;;;5.70;4.70;;;;;;;39.51;20.37;100248.38;5113637;28;20028;-74
2021/07/28 10:47:39;;;;;;;6.28;4.45;;;;;;;39.03;21.50;100244.66;5130795;27;20494;-74
2021/07/28 10:50:09;;;;;;;4.22;3.83;;;;;;;39.22;21.39;100249.59;5114934;28;20035;-75
2021/07/28 10:52:37;;;;;;;5.05;4.38;;;;;;;38.61;21.62;100245.75;5113810;28;20497;-75
2021/07/28 10:55:05;;;;;;;6.80;4.85;;;;;;;38.54;21.92;100250.13;5113822;28;20352;-75
2021/07/28 10:57:36;;;;;;;5.18;4.13;;;;;;;39.16;21.59;100246.00;5114548;28;20046;-74
2021/07/28 11:00:07;;;;;;;6.13;4.72;;;;;;;39.21;21.66;100240.06;5114014;28;20367;-75
2021/07/28 11:02:56;;;;;;;8.80;4.82;;;;;;;38.98;21.99;100242.63;5114237;28;20019;-76
2021/07/28 11:05:26;;;;;;;5.63;4.38;;;;;;;39.24;22.51;100249.78;5098358;28;20039;-75
2021/07/28 11:08:07;;;;;;;6.03;4.47;;;;;;;39.58;21.48;100205.34;5113489;28;20471;-75
2021/07/28 11:10:49;;;;;;;5.22;4.78;;;;;;;40.27;21.82;100253.41;5113757;28;20486;-75
2021/07/28 11:13:17;;;;;;;6.78;4.40;;;;;;;39.31;22.37;100243.28;5130661;27;20500;-76
2021/07/28 11:15:56;;;;;;;9.48;5.78;;;;;;;39.13;23.05;100229.66;5112917;28;20068;-75
2021/07/28 11:18:38;;;;;;;6.75;4.50;;;;;;;38.63;23.98;100246.00;5113248;28;20039;-75
2021/07/28 11:21:12;;;;;;;14.55;5.43;;;;;;;39.11;23.37;100238.94;5113561;28;20029;-76
2021/07/28 11:23:42;;;;;;;4.55;4.15;;;;;;;38.78;22.83;100240.44;5112938;28;20024;-75
2021/07/28 11:26:17;;;;;;;6.47;4.97;;;;;;;38.64;22.30;100244.66;5129959;27;20032;-75